createdAt,value
2018-09-21T00:00:14.136Z,9.10
2018-09-21T00:02:42.530Z,8.70
2018-09-21T00:05:10.926Z,8.83
2018-09-21T00:07:39.270Z,8.43
2018-09-21T00:10:07.717Z,8.83
2018-09-21T00:12:35.989Z,8.17
2018-09-21T00:15:05.645Z,9.63
2018-09-21T00:17:34.015Z,8.07
2018-09-21T00:20:02.327Z,9.10
2018-09-21T00:22:30.411Z,9.27
2018-09-21T00:24:58.873Z,8.47
2018-09-21T00:27:27.344Z,9.00
2018-09-21T00:29:55.445Z,10.40
2018-09-21T00:32:24.522Z,9.87
2018-09-21T00:34:52.754Z,9.57
2018-09-21T00:37:20.941Z,9.10
2018-09-21T00:39:49.293Z,8.43
2018-09-21T00:42:17.533Z,9.57
2018-09-21T00:44:45.652Z,9.10
2018-09-21T00:47:13.857Z,9.63
2018-09-21T00:49:42.009Z,8.40
2018-09-21T00:52:10.104Z,8.87
2018-09-21T00:54:38.240Z,8.83
2018-09-21T00:57:06.386Z,8.70
2018-09-21T00:59:34.479Z,9.30
2018-09-21T01:02:02.506Z,8.67
2018-09-21T01:04:36.459Z,9.40
2018-09-21T01:07:04.459Z,9.17
2018-09-21T01:09:32.665Z,9.50
2018-09-21T01:12:00.733Z,9.67
2018-09-21T01:14:28.897Z,10.47
2018-09-21T01:16:56.995Z,8.93
2018-09-21T01:19:25.192Z,9.47
2018-09-21T01:21:53.254Z,9.80
2018-09-21T01:24:21.330Z,10.30
2018-09-21T01:26:49.332Z,9.57
2018-09-21T01:29:17.379Z,8.93
2018-09-21T01:31:45.422Z,9.80
2018-09-21T01:34:13.742Z,9.30
2018-09-21T01:36:41.767Z,8.60
2018-09-21T01:39:10.495Z,8.87
2018-09-21T01:41:38.567Z,8.90
2018-09-21T01:44:07.749Z,8.93
2018-09-21T01:46:35.829Z,10.13
2018-09-21T01:49:03.964Z,8.87
2018-09-21T01:51:32.043Z,10.23
2018-09-21T01:54:00.046Z,9.50
2018-09-21T01:56:28.186Z,8.37
2018-09-21T01:58:56.317Z,10.50
2018-09-21T02:01:24.423Z,10.43
2018-09-21T02:03:52.544Z,9.90
2018-09-21T02:06:20.600Z,9.23
2018-09-21T02:08:48.663Z,10.33
2018-09-21T02:11:16.785Z,9.47
2018-09-21T02:13:44.898Z,9.17
2018-09-21T02:16:12.953Z,10.17
2018-09-21T02:18:40.980Z,11.23
2018-09-21T02:21:09.029Z,11.17
2018-09-21T02:23:37.128Z,9.97
2018-09-21T02:26:05.234Z,9.83
2018-09-21T02:28:33.365Z,10.07
2018-09-21T02:31:01.463Z,9.70
2018-09-21T02:33:29.604Z,10.40
2018-09-21T02:35:57.703Z,9.50
2018-09-21T02:38:25.864Z,9.90
2018-09-21T02:40:53.962Z,9.03
2018-09-21T02:43:21.966Z,9.60
2018-09-21T02:45:50.008Z,9.43
2018-09-21T02:48:18.793Z,9.80
2018-09-21T02:50:46.869Z,12.03
2018-09-21T02:53:14.924Z,10.70
2018-09-21T02:55:43.003Z,11.07
2018-09-21T02:58:11.107Z,10.93
2018-09-21T03:00:39.708Z,11.10
2018-09-21T03:03:07.743Z,9.50
2018-09-21T03:05:36.013Z,10.13
2018-09-21T03:08:04.179Z,10.13
2018-09-21T03:10:32.296Z,10.50
2018-09-21T03:13:00.457Z,9.00
2018-09-21T03:15:28.500Z,9.97
2018-09-21T03:17:56.549Z,9.80
2018-09-21T03:20:24.584Z,11.13
2018-09-21T03:22:52.646Z,11.20
2018-09-21T03:25:20.690Z,10.13
2018-09-21T03:27:48.845Z,10.67
2018-09-21T03:30:17.040Z,10.60
2018-09-21T03:32:45.090Z,10.40
2018-09-21T03:35:13.447Z,10.10
2018-09-21T03:37:41.565Z,10.57
2018-09-21T03:40:09.888Z,10.10
2018-09-21T03:42:38.064Z,11.50
2018-09-21T03:45:06.564Z,10.97
2018-09-21T03:47:34.636Z,10.00
2018-09-21T03:50:02.785Z,10.70
2018-09-21T03:52:30.853Z,11.40
2018-09-21T03:54:58.923Z,10.50
2018-09-21T03:57:27.109Z,10.20
2018-09-21T03:59:55.219Z,11.07
2018-09-21T04:02:23.276Z,10.93
2018-09-21T04:04:51.335Z,10.93
2018-09-21T04:07:19.416Z,10.77
2018-09-21T04:09:47.550Z,11.90
2018-09-21T04:12:15.607Z,10.80
2018-09-21T04:14:43.685Z,11.57
2018-09-21T04:17:11.764Z,11.50
2018-09-21T04:19:39.877Z,9.20
2018-09-21T04:22:08.219Z,11.43
2018-09-21T04:24:36.397Z,11.90
2018-09-21T04:27:04.476Z,12.27
2018-09-21T04:29:32.592Z,11.50
2018-09-21T04:32:00.654Z,12.10
2018-09-21T04:34:28.742Z,11.37
2018-09-21T04:36:56.809Z,12.00
2018-09-21T04:39:24.871Z,10.50
2018-09-21T04:41:53.007Z,11.93
2018-09-21T04:44:21.097Z,11.87
2018-09-21T04:46:49.243Z,11.67
2018-09-21T04:49:17.395Z,11.73
2018-09-21T04:51:45.518Z,11.63
2018-09-21T04:54:13.744Z,11.37
2018-09-21T04:56:41.834Z,11.97
2018-09-21T04:59:09.999Z,11.13
2018-09-21T05:01:38.321Z,12.17
2018-09-21T05:04:06.395Z,11.80
2018-09-21T05:06:34.593Z,11.20
2018-09-21T05:09:03.709Z,11.83
2018-09-21T05:11:31.822Z,12.10
2018-09-21T05:14:00.901Z,12.30
2018-09-21T05:16:29.182Z,11.03
2018-09-21T05:18:57.284Z,11.83
2018-09-21T05:21:25.443Z,11.40
2018-09-21T05:23:53.567Z,11.07
2018-09-21T05:26:21.744Z,11.33
2018-09-21T05:28:49.945Z,11.73
2018-09-21T05:31:18.127Z,11.20
2018-09-21T05:33:46.273Z,12.63
2018-09-21T05:36:14.390Z,11.13
2018-09-21T05:38:42.641Z,11.83
2018-09-21T05:41:10.821Z,13.17
2018-09-21T05:43:38.915Z,13.30
2018-09-21T05:46:07.025Z,12.87
2018-09-21T05:48:35.238Z,12.03
2018-09-21T05:51:03.406Z,12.20
2018-09-21T05:53:31.631Z,11.80
2018-09-21T05:55:59.964Z,11.60
2018-09-21T05:58:29.195Z,12.80
2018-09-21T06:00:57.364Z,13.77
2018-09-21T06:03:25.616Z,13.80
2018-09-21T06:05:53.893Z,17.73
2018-09-21T06:08:22.431Z,16.70
2018-09-21T06:10:50.608Z,17.87
2018-09-21T06:13:19.476Z,16.90
2018-09-21T06:15:48.126Z,14.90
2018-09-21T06:18:17.432Z,17.00
2018-09-21T06:20:45.540Z,15.60
2018-09-21T06:23:13.733Z,19.23
2018-09-21T06:25:41.868Z,16.33
2018-09-21T06:28:10.101Z,19.03
2018-09-21T06:30:38.350Z,18.77
2018-09-21T06:33:06.767Z,18.63
2018-09-21T06:35:35.042Z,16.97
2018-09-21T06:38:03.227Z,15.80
2018-09-21T06:40:31.812Z,15.60
2018-09-21T06:43:00.053Z,16.60
2018-09-21T06:45:28.220Z,16.50
2018-09-21T06:47:56.756Z,14.13
2018-09-21T06:50:25.426Z,15.20
2018-09-21T06:52:53.830Z,15.83
2018-09-21T06:55:22.113Z,14.80
2018-09-21T06:57:50.280Z,14.83
2018-09-21T07:00:18.903Z,14.30
2018-09-21T07:02:47.127Z,14.10
2018-09-21T07:05:16.173Z,12.90
2018-09-21T07:07:44.817Z,12.73
2018-09-21T07:10:13.784Z,11.90
2018-09-21T07:12:42.629Z,11.70
2018-09-21T07:15:10.813Z,10.93
2018-09-21T07:17:39.643Z,11.00
2018-09-21T07:20:07.900Z,10.70
2018-09-21T07:22:36.168Z,10.67
2018-09-21T07:25:05.138Z,10.80
2018-09-21T07:27:33.292Z,10.77
2018-09-21T07:30:01.415Z,9.53
2018-09-21T07:32:30.383Z,10.37
2018-09-21T07:34:58.917Z,9.30
2018-09-21T07:37:27.095Z,9.93
2018-09-21T07:39:55.226Z,9.87
2018-09-21T07:42:23.404Z,8.83
2018-09-21T07:44:51.591Z,9.57
2018-09-21T07:47:19.824Z,8.60
2018-09-21T07:49:48.014Z,8.90
2018-09-21T07:52:16.247Z,9.50
2018-09-21T07:54:44.468Z,7.80
2018-09-21T07:57:12.561Z,7.70
2018-09-21T07:59:40.891Z,7.60
2018-09-21T08:02:09.123Z,7.70
2018-09-21T08:04:37.543Z,8.07
2018-09-21T08:07:05.820Z,8.43
2018-09-21T08:09:33.965Z,7.93
2018-09-21T08:12:02.202Z,7.37
2018-09-21T08:14:30.404Z,7.47
2018-09-21T08:16:58.878Z,7.93
2018-09-21T08:19:27.235Z,7.47
2018-09-21T08:21:55.446Z,7.30
2018-09-21T08:24:23.687Z,7.10
2018-09-21T08:26:51.955Z,7.40
2018-09-21T08:29:20.208Z,7.83
2018-09-21T08:31:48.506Z,7.57
2018-09-21T08:34:16.639Z,7.83
2018-09-21T08:36:44.913Z,6.83
2018-09-21T08:39:13.099Z,7.70
2018-09-21T08:41:42.025Z,6.67
2018-09-21T08:44:10.843Z,6.97
2018-09-21T08:46:39.325Z,6.67
2018-09-21T08:49:07.417Z,6.60
2018-09-21T08:51:35.630Z,6.70
2018-09-21T08:54:04.076Z,6.77
2018-09-21T08:56:32.444Z,6.30
2018-09-21T08:59:00.608Z,6.40
2018-09-21T09:01:28.933Z,6.60
2018-09-21T09:03:57.040Z,6.40
2018-09-21T09:06:25.206Z,7.00
2018-09-21T09:08:53.385Z,6.13
2018-09-21T09:11:21.717Z,6.27
2018-09-21T09:13:49.779Z,5.80
2018-09-21T09:16:17.896Z,5.80
2018-09-21T09:18:46.170Z,5.87
2018-09-21T09:21:14.252Z,6.70
2018-09-21T09:23:42.568Z,6.33
2018-09-21T09:26:10.601Z,5.73
2018-09-21T09:28:38.721Z,5.23
2018-09-21T09:31:07.247Z,6.63
2018-09-21T09:33:35.406Z,6.77
2018-09-21T09:36:03.704Z,6.77
2018-09-21T09:38:32.016Z,6.30
2018-09-21T09:41:00.346Z,5.77
2018-09-21T09:43:28.562Z,6.37
2018-09-21T09:45:56.767Z,6.10
2018-09-21T09:48:25.016Z,6.10
2018-09-21T09:50:53.166Z,5.80
2018-09-21T09:53:21.501Z,5.60
2018-09-21T09:55:49.672Z,6.10
2018-09-21T09:58:18.064Z,5.90
2018-09-21T10:00:51.836Z,5.67
2018-09-21T10:03:21.485Z,6.07
2018-09-21T10:05:49.558Z,6.40
2018-09-21T10:08:17.856Z,5.97
2018-09-21T10:10:46.094Z,5.43
2018-09-21T10:13:14.361Z,5.80
2018-09-21T10:18:20.364Z,5.63
2018-09-21T10:20:48.561Z,5.83
2018-09-21T10:23:16.611Z,5.10
2018-09-21T10:25:44.701Z,5.10
2018-09-21T10:28:13.103Z,5.47
2018-09-21T10:30:41.234Z,5.03
2018-09-21T10:33:09.444Z,5.03
2018-09-21T10:35:37.786Z,5.20
2018-09-21T10:38:06.192Z,4.60
2018-09-21T10:40:34.283Z,4.37
2018-09-21T10:43:02.519Z,4.13
2018-09-21T10:45:31.327Z,4.30
2018-09-21T10:47:59.764Z,4.50
2018-09-21T10:50:28.015Z,4.97
2018-09-21T10:52:56.112Z,3.80
2018-09-21T10:55:24.653Z,4.40
2018-09-21T10:57:52.828Z,4.27
2018-09-21T11:00:20.949Z,4.07
2018-09-21T11:02:49.214Z,4.60
2018-09-21T11:05:17.435Z,4.90
2018-09-21T11:07:45.609Z,4.53
2018-09-21T11:10:14.949Z,4.10
2018-09-21T11:12:43.228Z,4.07
2018-09-21T11:15:11.448Z,3.80
2018-09-21T11:17:39.647Z,3.93
2018-09-21T11:20:08.699Z,4.10
2018-09-21T11:22:36.947Z,4.37
2018-09-21T11:25:05.142Z,4.83
2018-09-21T11:27:33.246Z,4.20
2018-09-21T11:30:01.378Z,3.90
2018-09-21T11:32:29.657Z,3.47
2018-09-21T11:34:57.820Z,3.80
2018-09-21T11:37:26.056Z,3.97
2018-09-21T11:39:54.190Z,3.50
2018-09-21T11:42:22.344Z,4.57
2018-09-21T11:44:50.577Z,3.30
2018-09-21T11:47:19.067Z,3.50
2018-09-21T11:49:47.176Z,3.53
2018-09-21T11:52:15.510Z,3.00
2018-09-21T11:54:43.728Z,3.60
2018-09-21T11:57:12.005Z,2.70
2018-09-21T11:59:40.280Z,3.50
2018-09-21T12:02:08.439Z,3.57
2018-09-21T12:04:36.584Z,3.53
2018-09-21T12:07:04.698Z,3.37
2018-09-21T12:09:32.740Z,2.83
2018-09-21T12:12:00.919Z,2.93
2018-09-21T12:14:29.051Z,3.10
2018-09-21T12:16:57.482Z,2.47
2018-09-21T12:19:25.605Z,2.00
2018-09-21T12:21:53.756Z,2.47
2018-09-21T12:24:22.103Z,2.13
2018-09-21T12:26:50.265Z,1.77
2018-09-21T12:29:18.836Z,1.87
2018-09-21T12:31:46.985Z,1.90
2018-09-21T12:34:15.179Z,2.47
2018-09-21T12:36:43.745Z,2.03
2018-09-21T12:39:13.245Z,1.87
2018-09-21T12:41:41.642Z,2.13
2018-09-21T12:44:11.677Z,2.17
2018-09-21T12:46:39.999Z,1.80
2018-09-21T12:49:08.192Z,1.83
2018-09-21T12:51:36.393Z,2.57
2018-09-21T12:54:04.724Z,2.03
2018-09-21T12:56:33.020Z,1.67
2018-09-21T12:59:01.206Z,1.67
2018-09-21T13:01:29.451Z,1.90
2018-09-21T13:03:57.555Z,1.87
2018-09-21T13:06:26.017Z,2.43
2018-09-21T13:08:54.122Z,2.23
2018-09-21T13:11:22.447Z,2.40
2018-09-21T13:13:50.626Z,1.90
2018-09-21T13:16:18.837Z,2.17
2018-09-21T13:18:47.061Z,1.10
2018-09-21T13:21:15.444Z,0.83
2018-09-21T13:23:43.684Z,0.60
2018-09-21T13:26:11.853Z,0.80
2018-09-21T13:28:40.229Z,0.70
2018-09-21T13:31:08.509Z,0.90
2018-09-21T13:33:36.756Z,0.50
2018-09-21T13:36:05.124Z,0.90
2018-09-21T13:38:33.453Z,0.60
2018-09-21T13:41:01.647Z,0.60
2018-09-21T13:43:29.994Z,0.70
2018-09-21T13:45:58.120Z,0.60
2018-09-21T13:48:26.355Z,0.63
2018-09-21T13:50:54.627Z,0.77
2018-09-21T13:53:22.857Z,0.70
2018-09-21T13:55:51.093Z,0.80
2018-09-21T13:58:19.324Z,1.00
2018-09-21T14:00:47.467Z,0.77
2018-09-21T14:03:15.714Z,0.70
2018-09-21T14:05:43.887Z,0.90
2018-09-21T14:08:12.359Z,0.80
2018-09-21T14:10:40.689Z,0.70
2018-09-21T14:13:08.905Z,0.83
2018-09-21T14:15:37.344Z,1.00
2018-09-21T14:18:05.753Z,1.27
2018-09-21T14:20:34.229Z,1.23
2018-09-21T14:23:02.639Z,1.10
2018-09-21T14:25:31.054Z,1.47
2018-09-21T14:27:59.280Z,1.03
2018-09-21T14:30:28.193Z,0.90
2018-09-21T14:32:56.438Z,1.10
2018-09-21T14:35:24.627Z,1.10
2018-09-21T14:37:52.937Z,1.53
2018-09-21T14:40:21.477Z,0.87
2018-09-21T14:42:49.741Z,1.00
2018-09-21T14:45:18.021Z,1.23
2018-09-21T14:47:46.142Z,1.60
2018-09-21T14:50:14.556Z,1.50
2018-09-21T14:52:42.759Z,1.53
2018-09-21T14:55:10.985Z,1.43
2018-09-21T14:57:39.638Z,1.40
2018-09-21T15:00:07.984Z,1.70
2018-09-21T15:02:36.228Z,1.20
2018-09-21T15:05:04.562Z,2.83
2018-09-21T15:07:32.820Z,1.63
2018-09-21T15:10:01.078Z,1.60
2018-09-21T15:12:29.656Z,1.60
2018-09-21T15:14:58.090Z,2.30
2018-09-21T15:17:26.477Z,1.70
2018-09-21T15:19:54.811Z,2.50
2018-09-21T15:22:23.134Z,1.93
2018-09-21T15:24:51.318Z,1.60
2018-09-21T15:27:19.471Z,1.37
2018-09-21T15:29:47.716Z,2.60
2018-09-21T15:32:16.124Z,1.90
2018-09-21T15:34:44.983Z,1.33
2018-09-21T15:37:13.665Z,1.87
2018-09-21T15:39:41.940Z,1.87
2018-09-21T15:42:10.327Z,1.77
2018-09-21T15:44:38.572Z,2.20
2018-09-21T15:47:07.041Z,1.70
2018-09-21T15:49:35.395Z,1.30
2018-09-21T15:52:04.491Z,1.23
2018-09-21T15:54:32.675Z,1.40
2018-09-21T15:57:00.983Z,1.60
2018-09-21T15:59:29.596Z,1.63
2018-09-21T16:01:58.199Z,1.63
2018-09-21T16:04:26.511Z,1.93
2018-09-21T16:06:54.824Z,1.70
2018-09-21T16:09:23.070Z,1.77
2018-09-21T16:11:51.377Z,1.63
2018-09-21T16:14:19.734Z,1.63
2018-09-21T16:16:48.002Z,2.10
2018-09-21T16:19:16.261Z,2.00
2018-09-21T16:21:44.770Z,1.90
2018-09-21T16:24:13.111Z,2.10
2018-09-21T16:26:41.423Z,1.63
2018-09-21T16:29:09.662Z,1.70
2018-09-21T16:31:37.925Z,1.90
2018-09-21T16:34:06.324Z,1.63
2018-09-21T16:36:34.518Z,2.10
2018-09-21T16:39:02.819Z,1.50
2018-09-21T16:41:31.069Z,1.60
2018-09-21T16:43:59.367Z,1.53
2018-09-21T16:46:27.680Z,1.43
2018-09-21T16:48:55.891Z,1.40
2018-09-21T16:51:24.255Z,1.83
2018-09-21T16:53:52.532Z,1.20
2018-09-21T16:56:20.896Z,1.10
2018-09-21T16:58:49.305Z,1.27
2018-09-21T17:01:17.527Z,1.50
2018-09-21T17:03:45.759Z,1.87
2018-09-21T17:06:13.976Z,1.40
2018-09-21T17:08:42.217Z,1.70
2018-09-21T17:11:10.426Z,2.17
2018-09-21T17:13:38.765Z,1.70
2018-09-21T17:16:06.989Z,1.57
2018-09-21T17:18:35.272Z,1.70
2018-09-21T17:21:03.617Z,1.40
2018-09-21T17:23:31.940Z,1.47
2018-09-21T17:26:00.225Z,1.10
2018-09-21T17:28:28.539Z,1.27
2018-09-21T17:30:56.785Z,1.20
2018-09-21T17:33:24.957Z,1.30
2018-09-21T17:35:53.248Z,1.07
2018-09-21T17:38:21.440Z,1.10
2018-09-21T17:40:49.755Z,0.93
2018-09-21T17:43:18.033Z,1.47
2018-09-21T17:45:46.191Z,1.47
2018-09-21T17:48:14.407Z,1.20
2018-09-21T17:50:42.852Z,0.93
2018-09-21T17:53:11.095Z,1.17
2018-09-21T17:55:39.395Z,0.77
2018-09-21T17:58:07.884Z,1.00
2018-09-21T18:00:36.251Z,1.13
2018-09-21T18:03:04.645Z,1.20
2018-09-21T18:05:33.205Z,0.80
2018-09-21T18:08:01.674Z,0.80
2018-09-21T18:10:30.047Z,1.33
2018-09-21T18:12:58.420Z,0.93
2018-09-21T18:15:26.823Z,1.00
2018-09-21T18:17:55.310Z,1.20
2018-09-21T18:20:23.595Z,1.20
2018-09-21T18:22:51.937Z,0.97
2018-09-21T18:25:20.285Z,1.30
2018-09-21T18:27:48.541Z,1.30
2018-09-21T18:30:17.593Z,1.00
2018-09-21T18:32:45.937Z,1.30
2018-09-21T18:35:14.688Z,1.03
2018-09-21T18:37:43.304Z,1.43
2018-09-21T18:40:11.651Z,1.10
2018-09-21T18:42:40.195Z,1.00
2018-09-21T18:45:08.648Z,1.00
2018-09-21T18:47:37.125Z,0.90
2018-09-21T18:50:05.495Z,1.03
2018-09-21T18:52:34.012Z,1.07
2018-09-21T18:55:02.568Z,1.20
2018-09-21T18:57:31.261Z,1.03
2018-09-21T18:59:59.799Z,1.10
2018-09-21T19:02:28.126Z,1.07
2018-09-21T19:04:56.432Z,1.00
2018-09-21T19:07:30.581Z,1.10
2018-09-21T19:09:59.791Z,1.17
2018-09-21T19:12:28.745Z,1.23
2018-09-21T19:14:57.343Z,1.30
2018-09-21T19:17:26.095Z,1.20
2018-09-21T19:19:54.635Z,1.13
2018-09-21T19:22:23.415Z,1.30
2018-09-21T19:24:52.091Z,1.57
2018-09-21T19:27:20.878Z,1.20
2018-09-21T19:29:50.246Z,0.80
2018-09-21T19:32:19.001Z,1.07
2018-09-21T19:34:47.512Z,1.30
2018-09-21T19:37:15.930Z,1.10
2018-09-21T19:39:44.175Z,1.70
2018-09-21T19:42:12.564Z,1.00
2018-09-21T19:44:41.073Z,1.00
2018-09-21T19:47:09.326Z,1.07
2018-09-21T19:49:37.565Z,1.30
2018-09-21T19:52:06.133Z,1.30
2018-09-21T19:54:34.405Z,1.20
2018-09-21T19:57:02.649Z,1.13
2018-09-21T19:59:31.026Z,1.27
2018-09-21T20:01:59.219Z,0.90
2018-09-21T20:04:27.669Z,1.40
2018-09-21T20:06:55.940Z,1.23
2018-09-21T20:09:24.172Z,1.37
2018-09-21T20:11:52.487Z,1.17
2018-09-21T20:14:21.143Z,1.37
2018-09-21T20:16:49.545Z,1.20
2018-09-21T20:19:17.904Z,1.53
2018-09-21T20:21:46.378Z,1.10
2018-09-21T20:24:14.889Z,1.07
2018-09-21T20:26:43.178Z,1.70
2018-09-21T20:29:11.816Z,1.13
2018-09-21T20:31:45.805Z,1.27
2018-09-21T20:34:14.283Z,1.00
2018-09-21T20:36:42.912Z,1.27
2018-09-21T20:39:11.282Z,1.00
2018-09-21T20:41:39.805Z,0.93
2018-09-21T20:44:08.233Z,1.67
2018-09-21T20:46:36.607Z,1.03
2018-09-21T20:49:04.970Z,0.87
2018-09-21T20:51:33.473Z,0.83
2018-09-21T20:54:01.676Z,1.73
2018-09-21T20:56:30.197Z,0.90
2018-09-21T20:58:58.437Z,1.17
2018-09-21T21:01:26.836Z,1.20
2018-09-21T21:03:55.178Z,1.10
2018-09-21T21:06:23.554Z,1.10
2018-09-21T21:08:51.941Z,0.90
2018-09-21T21:11:20.167Z,1.20
2018-09-21T21:13:48.557Z,1.30
2018-09-21T21:16:16.872Z,0.83
2018-09-21T21:18:45.016Z,0.90
2018-09-21T21:21:14.049Z,1.07
2018-09-21T21:23:42.265Z,1.00
2018-09-21T21:26:10.591Z,1.10
2018-09-21T21:28:38.834Z,1.20
2018-09-21T21:31:06.973Z,1.07
2018-09-21T21:33:35.274Z,1.13
2018-09-21T21:36:03.517Z,1.13
2018-09-21T21:38:31.700Z,1.13
2018-09-21T21:40:59.877Z,0.90
2018-09-21T21:43:28.089Z,1.03
2018-09-21T21:45:56.244Z,1.30
2018-09-21T21:48:24.477Z,1.17
2018-09-21T21:50:53.003Z,1.20
2018-09-21T21:53:21.317Z,1.00
2018-09-21T21:55:49.389Z,1.40
2018-09-21T21:58:17.688Z,1.30
2018-09-21T22:00:51.486Z,1.53
2018-09-21T22:03:19.753Z,1.27
2018-09-21T22:05:47.895Z,1.60
2018-09-21T22:08:16.197Z,1.50
2018-09-21T22:10:44.339Z,1.20
2018-09-21T22:13:18.077Z,1.10
2018-09-21T22:15:46.143Z,1.10
2018-09-21T22:18:14.265Z,1.30
2018-09-21T22:20:42.456Z,1.27
2018-09-21T22:23:10.633Z,1.57
2018-09-21T22:25:38.843Z,1.00
2018-09-21T22:28:07.027Z,1.00
2018-09-21T22:30:35.183Z,1.30
2018-09-21T22:33:03.353Z,1.00
2018-09-21T22:35:31.726Z,1.13
2018-09-21T22:37:59.872Z,1.20
2018-09-21T22:40:28.001Z,1.20
2018-09-21T22:42:56.101Z,1.37
2018-09-21T22:45:24.310Z,1.20
2018-09-21T22:47:52.592Z,0.87
2018-09-21T22:50:21.443Z,1.27
2018-09-21T22:52:49.618Z,0.90
2018-09-21T22:55:17.777Z,1.77
2018-09-21T22:57:45.898Z,1.10
2018-09-21T23:00:14.574Z,1.00
2018-09-21T23:02:42.716Z,1.20
2018-09-21T23:05:10.873Z,0.80
2018-09-21T23:07:39.008Z,1.37
2018-09-21T23:10:07.201Z,1.13
2018-09-21T23:12:35.344Z,1.03
2018-09-21T23:15:03.610Z,0.90
2018-09-21T23:17:31.842Z,1.00
2018-09-21T23:20:00.042Z,0.87
2018-09-21T23:22:28.259Z,1.17
2018-09-21T23:24:56.399Z,1.00
2018-09-21T23:27:24.495Z,1.23
2018-09-21T23:29:52.628Z,1.67
2018-09-21T23:32:20.901Z,1.13
2018-09-21T23:34:49.024Z,1.10
2018-09-21T23:37:17.766Z,1.40
2018-09-21T23:39:45.901Z,1.10
2018-09-21T23:42:14.041Z,1.10
2018-09-21T23:44:42.234Z,1.57
2018-09-21T23:47:10.333Z,1.20
2018-09-21T23:49:38.480Z,0.80
2018-09-21T23:52:06.586Z,1.47
2018-09-21T23:54:34.802Z,0.90
2018-09-21T23:57:02.878Z,1.37
2018-09-21T23:59:31.042Z,1.30
